Main page
METAR-TAF:

METAR-TAF

Airports :

Beja Airbase

Beja, Portugal

latitude: 38-04-40N, longitude: 007-55-57W, elevation: 193 m

Current weather observation

The report was made 20 minutes ago, at 08:00 UTC
Wind 2 kt from variable directions
Temperature 17°C
Humidity 63%
Pressure 1016 hPa
Visibility 10 km or more
no clouds below 1500 m and no cumulonimbus

METAR: LPBJ 240800Z VRB02KT CAVOK 17/10 Q1016

Time: 09:20 (08:20 UTC)

Forecast

The report was made 3 hours and 16 minutes ago, at 05:04 UTC
Forecast valid from 24 at 06 UTC to 25 at 06 UTC
Wind 8 kt from the West/Northwest
Visibility 10 km or more
no clouds below 1500 m and no cumulonimbus

TAF: LPBJ 240504Z 2406/2506 30008KT CAVOK

Weather observations and forecasts of more than 4000 airports (METAR and TAF reports).

The available stations are represented by yellow and red dots on the map.

Hover mouse over dot to see the name of the station.

Then click to see weather observations and forecasts.

To change the map : click on the green buttons with a black cross to zoom in, on the green button with a dash to zoom out, or on the green arrows for adjacent maps.


METAR-TAF: